createdAt,value
2022-09-03T00:00:07.013Z,38.13
2022-09-03T00:01:16.586Z,38.15
2022-09-03T00:02:26.716Z,38.15
2022-09-03T00:03:33.562Z,38.14
2022-09-03T00:04:43.683Z,38.11
2022-09-03T00:05:59.307Z,38.08
2022-09-03T00:07:05.977Z,38.06
2022-09-03T00:08:22.613Z,38.02
2022-09-03T00:09:29.174Z,37.99
2022-09-03T00:10:55.026Z,37.97
2022-09-03T00:12:07.828Z,38.03
2022-09-03T00:13:17.446Z,37.97
2022-09-03T00:14:27.169Z,38.03
2022-09-03T00:15:33.246Z,38.05
2022-09-03T00:16:54.920Z,38.03
2022-09-03T00:18:04.314Z,38.01
2022-09-03T00:19:07.560Z,37.99
2022-09-03T00:20:21.141Z,38.02
2022-09-03T00:21:43.222Z,38.01
2022-09-03T00:22:49.824Z,38.07
2022-09-03T00:23:54.136Z,38.05
2022-09-03T00:25:00.571Z,38.11
2022-09-03T00:26:13.568Z,38.10
2022-09-03T00:27:20.343Z,38.14
2022-09-03T00:28:35.857Z,38.23
2022-09-03T00:29:48.437Z,38.15
2022-09-03T00:30:56.709Z,38.14
2022-09-03T00:32:06.413Z,38.14
2022-09-03T00:33:13.161Z,38.15
2022-09-03T00:34:26.535Z,38.17
2022-09-03T00:35:38.740Z,38.15
2022-09-03T00:36:43.658Z,38.17
2022-09-03T00:37:47.353Z,38.18
2022-09-03T00:38:50.982Z,38.21
2022-09-03T00:39:55.647Z,38.20
2022-09-03T00:41:06.278Z,38.24
2022-09-03T00:42:34.192Z,38.21
2022-09-03T00:43:57.447Z,38.23
2022-09-03T00:45:28.332Z,38.20
2022-09-03T00:46:40.866Z,38.24
2022-09-03T00:48:07.321Z,38.23
2022-09-03T00:49:16.906Z,38.30
2022-09-03T00:50:35.718Z,38.42
2022-09-03T00:51:51.532Z,38.44
2022-09-03T00:53:04.323Z,38.48
2022-09-03T00:54:29.369Z,38.47
2022-09-03T00:55:46.440Z,38.57
2022-09-03T00:57:14.174Z,38.53
2022-09-03T00:58:23.733Z,38.53
2022-09-03T00:59:59.029Z,38.60
2022-09-03T01:01:05.892Z,38.59
2022-09-03T01:02:31.326Z,38.63
2022-09-03T01:03:44.723Z,38.78
2022-09-03T01:05:00.364Z,38.73
2022-09-03T01:06:07.343Z,38.81
2022-09-03T01:07:33.549Z,38.74
2022-09-03T01:09:01.040Z,38.83
2022-09-03T01:10:16.720Z,38.88
2022-09-03T01:11:59.772Z,38.89
2022-09-03T01:13:09.651Z,39.04
2022-09-03T01:14:40.178Z,39.09
2022-09-03T01:15:56.132Z,39.07
2022-09-03T01:17:21.021Z,39.10
2022-09-03T01:18:36.687Z,39.19
2022-09-03T01:19:50.919Z,39.24
2022-09-03T01:21:07.002Z,39.34
2022-09-03T01:22:48.324Z,39.47
2022-09-03T01:24:23.191Z,39.46
2022-09-03T01:25:54.242Z,39.59
2022-09-03T01:27:07.418Z,39.69
2022-09-03T01:28:26.827Z,39.69
2022-09-03T01:29:52.891Z,39.75
2022-09-03T01:31:02.934Z,39.77
2022-09-03T01:32:13.530Z,39.78
2022-09-03T01:33:43.972Z,39.82
2022-09-03T01:35:11.970Z,39.85
2022-09-03T01:36:21.843Z,39.95
2022-09-03T01:37:47.944Z,40.07
2022-09-03T01:38:54.677Z,40.12
2022-09-03T01:40:10.311Z,40.17
2022-09-03T01:42:02.150Z,40.15
2022-09-03T01:43:38.520Z,40.05
2022-09-03T01:45:14.145Z,40.09
2022-09-03T01:46:24.229Z,40.01
2022-09-03T01:47:52.025Z,40.00
2022-09-03T01:49:20.176Z,40.02
2022-09-03T01:50:46.892Z,39.95
2022-09-03T01:52:03.365Z,40.06
2022-09-03T01:53:38.652Z,40.01
2022-09-03T01:54:45.316Z,40.05
2022-09-03T01:56:09.951Z,40.08
2022-09-03T01:57:39.275Z,40.07
2022-09-03T01:58:58.056Z,40.06
2022-09-03T02:00:08.064Z,40.23
2022-09-03T02:01:20.677Z,40.21
2022-09-03T02:02:26.097Z,40.22
2022-09-03T02:03:40.752Z,40.28
2022-09-03T02:05:08.779Z,40.33
2022-09-03T02:06:12.377Z,40.41
2022-09-03T02:07:15.465Z,40.38
2022-09-03T02:08:20.045Z,40.40
2022-09-03T02:09:23.942Z,40.45
2022-09-03T02:10:38.798Z,40.48
2022-09-03T02:11:43.286Z,40.58
2022-09-03T02:12:52.940Z,40.58
2022-09-03T02:13:58.918Z,40.60
2022-09-03T02:15:04.370Z,40.58
2022-09-03T02:16:14.101Z,40.68
2022-09-03T02:17:17.769Z,40.68
2022-09-03T02:18:24.767Z,40.66
2022-09-03T02:19:30.167Z,40.70
2022-09-03T02:20:34.076Z,40.69
2022-09-03T02:21:40.362Z,40.66
2022-09-03T02:22:43.457Z,40.62
2022-09-03T02:23:47.925Z,40.69
2022-09-03T02:24:51.617Z,40.64
2022-09-03T02:26:01.091Z,40.66
2022-09-03T02:27:04.303Z,40.71
2022-09-03T02:28:17.066Z,40.72
2022-09-03T02:29:16.363Z,40.72
2022-09-03T02:30:19.757Z,40.82
2022-09-03T02:31:23.004Z,40.79
2022-09-03T02:32:26.415Z,40.83
2022-09-03T02:33:32.104Z,40.82
2022-09-03T02:34:35.208Z,40.80
2022-09-03T02:35:40.191Z,40.75
2022-09-03T02:36:45.987Z,40.68
2022-09-03T02:37:49.591Z,40.68
2022-09-03T02:38:52.929Z,40.68
2022-09-03T02:39:56.004Z,40.65
2022-09-03T02:40:59.248Z,40.65
2022-09-03T02:42:02.415Z,40.67
2022-09-03T02:43:09.090Z,40.69
2022-09-03T02:44:23.503Z,40.82
2022-09-03T02:45:28.994Z,40.94
2022-09-03T02:46:56.865Z,40.91
2022-09-03T02:48:00.390Z,40.96
2022-09-03T02:49:03.684Z,41.03
2022-09-03T02:50:07.261Z,41.06
2022-09-03T02:51:14.295Z,41.05
2022-09-03T02:52:16.268Z,41.05
2022-09-03T02:53:19.720Z,41.22
2022-09-03T02:54:22.809Z,41.25
2022-09-03T02:55:25.914Z,41.25
2022-09-03T02:56:28.996Z,41.24
2022-09-03T02:57:32.081Z,41.35
2022-09-03T02:58:35.202Z,41.35
2022-09-03T02:59:39.303Z,41.31
2022-09-03T03:00:42.397Z,41.31
2022-09-03T03:01:46.662Z,41.37
2022-09-03T03:02:51.997Z,41.41
2022-09-03T03:03:55.162Z,41.42
2022-09-03T03:04:58.455Z,41.40
2022-09-03T03:06:04.395Z,41.43
2022-09-03T03:07:07.613Z,41.44
2022-09-03T03:08:12.985Z,41.44
2022-09-03T03:09:16.749Z,41.52
2022-09-03T03:10:21.327Z,41.47
2022-09-03T03:11:25.746Z,41.46
2022-09-03T03:12:30.271Z,41.50
2022-09-03T03:13:33.653Z,41.60
2022-09-03T03:14:37.367Z,41.50
2022-09-03T03:15:42.087Z,41.37
2022-09-03T03:16:45.330Z,41.37
2022-09-03T03:17:48.635Z,41.61
2022-09-03T03:18:52.248Z,41.51
2022-09-03T03:19:55.341Z,41.56
2022-09-03T03:21:04.256Z,41.59
2022-09-03T03:22:07.444Z,41.53
2022-09-03T03:23:10.645Z,41.52
2022-09-03T03:24:13.763Z,41.57
2022-09-03T03:25:16.789Z,41.59
2022-09-03T03:26:22.282Z,41.60
2022-09-03T03:27:25.466Z,41.69
2022-09-03T03:28:28.451Z,41.63
2022-09-03T03:29:31.544Z,41.68
2022-09-03T03:30:38.363Z,41.68
2022-09-03T03:31:41.564Z,41.70
2022-09-03T03:32:44.656Z,41.76
2022-09-03T03:33:52.013Z,41.64
2022-09-03T03:34:55.255Z,41.69
2022-09-03T03:35:58.262Z,41.69
2022-09-03T03:37:01.430Z,41.77
2022-09-03T03:38:04.631Z,41.78
2022-09-03T03:39:08.085Z,41.80
2022-09-03T03:40:13.773Z,41.79
2022-09-03T03:41:22.530Z,41.83
2022-09-03T03:42:25.519Z,41.91
2022-09-03T03:43:28.749Z,41.83
2022-09-03T03:44:31.826Z,41.86
2022-09-03T03:45:34.941Z,41.81
2022-09-03T03:46:41.406Z,41.81
2022-09-03T03:47:44.399Z,41.81
2022-09-03T03:48:48.590Z,41.85
2022-09-03T03:49:51.890Z,41.87
2022-09-03T03:50:55.069Z,41.86
2022-09-03T03:51:58.147Z,41.83
2022-09-03T03:53:01.713Z,41.76
2022-09-03T03:54:05.801Z,41.73
2022-09-03T03:55:09.153Z,41.76
2022-09-03T03:56:14.744Z,41.70
2022-09-03T03:57:20.506Z,41.73
2022-09-03T03:58:23.648Z,41.64
2022-09-03T03:59:26.808Z,41.66
2022-09-03T04:00:30.326Z,41.63
2022-09-03T04:01:33.555Z,41.54
2022-09-03T04:02:39.176Z,41.54
2022-09-03T04:03:42.182Z,41.48
2022-09-03T04:04:45.266Z,41.50
2022-09-03T04:05:56.643Z,41.42
2022-09-03T04:06:59.863Z,41.39
2022-09-03T04:08:03.584Z,41.45
2022-09-03T04:09:06.671Z,41.37
2022-09-03T04:10:10.132Z,41.36
2022-09-03T04:11:16.507Z,41.36
2022-09-03T04:12:19.608Z,41.45
2022-09-03T04:13:22.680Z,41.36
2022-09-03T04:14:26.852Z,41.36
2022-09-03T04:15:29.947Z,41.34
2022-09-03T04:16:33.416Z,41.45
2022-09-03T04:17:36.633Z,41.38
2022-09-03T04:18:40.070Z,41.33
2022-09-03T04:19:43.213Z,41.43
2022-09-03T04:20:46.298Z,41.36
2022-09-03T04:21:49.383Z,41.38
2022-09-03T04:22:52.471Z,41.42
2022-09-03T04:23:56.261Z,41.40
2022-09-03T04:24:59.471Z,41.43
2022-09-03T04:26:03.082Z,41.44
2022-09-03T04:27:08.405Z,41.42
2022-09-03T04:28:12.129Z,41.40
2022-09-03T04:29:16.148Z,41.40
2022-09-03T04:30:20.858Z,41.38
2022-09-03T04:31:24.170Z,41.36
2022-09-03T04:32:46.049Z,41.32
2022-09-03T04:33:50.705Z,41.41
2022-09-03T04:34:53.698Z,41.29
2022-09-03T04:36:17.182Z,41.24
2022-09-03T04:37:20.394Z,41.16
2022-09-03T04:38:23.815Z,41.10
2022-09-03T04:39:27.309Z,41.11
2022-09-03T04:40:30.823Z,41.11
2022-09-03T04:41:33.924Z,41.05
2022-09-03T04:42:37.007Z,41.07
2022-09-03T04:43:42.791Z,41.07
2022-09-03T04:44:45.926Z,41.13
2022-09-03T04:45:48.949Z,41.09
2022-09-03T04:46:52.732Z,41.04
2022-09-03T04:48:00.008Z,41.11
2022-09-03T04:49:03.344Z,41.04
2022-09-03T04:50:07.519Z,41.01
2022-09-03T04:51:14.365Z,41.05
2022-09-03T04:52:17.500Z,41.03
2022-09-03T04:53:21.107Z,41.11
2022-09-03T04:54:24.224Z,41.06
2022-09-03T04:55:34.629Z,41.01
2022-09-03T04:56:40.775Z,40.99
2022-09-03T04:57:44.239Z,41.01
2022-09-03T04:58:50.985Z,41.04
2022-09-03T04:59:53.484Z,41.09
2022-09-03T05:00:57.197Z,41.12
2022-09-03T05:02:00.465Z,41.12
2022-09-03T05:03:04.619Z,41.11
2022-09-03T05:04:08.222Z,41.07
2022-09-03T05:05:11.425Z,41.07
2022-09-03T05:06:16.829Z,41.06
2022-09-03T05:07:20.532Z,41.11
2022-09-03T05:08:26.013Z,41.04
2022-09-03T05:09:29.142Z,41.02
2022-09-03T05:10:33.430Z,41.02
2022-09-03T05:11:36.538Z,40.95
2022-09-03T05:12:39.667Z,40.87
2022-09-03T05:13:42.941Z,40.84
2022-09-03T05:14:46.009Z,40.76
2022-09-03T05:15:49.110Z,40.72
2022-09-03T05:16:52.955Z,40.65
2022-09-03T05:17:57.818Z,40.48
2022-09-03T05:19:01.497Z,40.35
2022-09-03T05:20:08.730Z,40.33
2022-09-03T05:21:14.583Z,40.30
2022-09-03T05:22:19.528Z,40.21
2022-09-03T05:23:22.694Z,40.18
2022-09-03T05:24:25.845Z,40.09
2022-09-03T05:25:30.963Z,40.16
2022-09-03T05:26:37.188Z,40.08
2022-09-03T05:27:40.323Z,40.20
2022-09-03T05:28:44.648Z,40.29
2022-09-03T05:29:48.746Z,40.24
2022-09-03T05:31:00.493Z,40.31
2022-09-03T05:32:03.787Z,40.28
2022-09-03T05:33:06.966Z,40.29
2022-09-03T05:34:16.605Z,40.33
2022-09-03T05:35:16.268Z,40.33
2022-09-03T05:36:23.175Z,40.32
2022-09-03T05:37:26.288Z,40.22
2022-09-03T05:38:29.494Z,40.19
2022-09-03T05:39:32.614Z,40.25
2022-09-03T05:40:36.364Z,40.26
2022-09-03T05:41:39.799Z,40.26
2022-09-03T05:42:43.293Z,40.25
2022-09-03T05:43:53.402Z,40.22
2022-09-03T05:44:56.947Z,40.16
2022-09-03T05:46:18.031Z,40.01
2022-09-03T05:47:21.024Z,39.88
2022-09-03T05:48:24.245Z,39.81
2022-09-03T05:49:27.415Z,39.78
2022-09-03T05:50:31.409Z,39.81
2022-09-03T05:51:36.354Z,39.66
2022-09-03T05:52:39.459Z,39.61
2022-09-03T05:53:43.941Z,39.58
2022-09-03T05:54:47.449Z,39.51
2022-09-03T05:55:58.282Z,39.47
2022-09-03T05:57:01.832Z,39.48
2022-09-03T05:58:04.997Z,39.34
2022-09-03T05:59:09.751Z,39.38
2022-09-03T06:00:13.420Z,39.31
2022-09-03T06:01:19.550Z,39.23
2022-09-03T06:02:23.157Z,39.23
2022-09-03T06:03:28.150Z,39.16
2022-09-03T06:04:32.395Z,39.22
2022-09-03T06:05:36.404Z,39.25
2022-09-03T06:06:42.122Z,39.23
2022-09-03T06:07:47.843Z,39.14
2022-09-03T06:08:52.331Z,39.04
2022-09-03T06:09:55.741Z,39.01
2022-09-03T06:11:00.249Z,39.00
2022-09-03T06:12:03.949Z,38.91
2022-09-03T06:13:07.883Z,38.85
2022-09-03T06:14:12.849Z,38.82
2022-09-03T06:15:16.309Z,38.77
2022-09-03T06:16:30.512Z,38.75
2022-09-03T06:17:26.601Z,38.66
2022-09-03T06:18:30.409Z,38.70
2022-09-03T06:19:33.600Z,38.62
2022-09-03T06:20:37.442Z,38.56
2022-09-03T06:21:43.282Z,38.51
2022-09-03T06:22:51.775Z,38.42
2022-09-03T06:23:56.751Z,38.40
2022-09-03T06:25:01.669Z,38.35
2022-09-03T06:26:07.751Z,38.24
2022-09-03T06:27:11.274Z,38.18
2022-09-03T06:28:14.368Z,38.16
2022-09-03T06:29:18.695Z,38.16
2022-09-03T06:30:23.600Z,38.13
2022-09-03T06:31:27.486Z,38.15
2022-09-03T06:32:30.621Z,38.21
2022-09-03T06:33:35.771Z,38.20
2022-09-03T06:34:39.085Z,38.23
2022-09-03T06:35:43.249Z,38.28
2022-09-03T06:36:46.616Z,38.28
2022-09-03T06:37:51.624Z,38.25
2022-09-03T06:38:56.163Z,38.16
2022-09-03T06:39:59.397Z,38.12
2022-09-03T06:41:08.054Z,38.02
2022-09-03T06:42:11.757Z,38.01
2022-09-03T06:43:16.571Z,38.05
2022-09-03T06:44:19.544Z,37.91
2022-09-03T06:45:22.726Z,37.85
2022-09-03T06:46:26.273Z,37.79
2022-09-03T06:47:29.361Z,37.65
2022-09-03T06:48:33.960Z,37.47
2022-09-03T06:49:38.177Z,37.33
2022-09-03T06:50:42.327Z,37.31
2022-09-03T06:51:45.440Z,37.32
2022-09-03T06:52:56.885Z,37.37
2022-09-03T06:54:02.802Z,37.32
2022-09-03T06:55:06.755Z,37.23
2022-09-03T06:56:16.436Z,37.13
2022-09-03T06:57:19.878Z,36.98
2022-09-03T06:58:23.234Z,36.88
2022-09-03T06:59:26.404Z,36.81
2022-09-03T07:00:30.721Z,36.80
2022-09-03T07:01:35.536Z,36.73
2022-09-03T07:02:44.240Z,36.71
2022-09-03T07:03:48.201Z,36.69
2022-09-03T07:04:51.221Z,36.67
2022-09-03T07:05:54.423Z,36.65
2022-09-03T07:06:57.718Z,36.66
2022-09-03T07:08:00.730Z,36.48
2022-09-03T07:09:04.455Z,36.38
2022-09-03T07:10:09.775Z,36.34
2022-09-03T07:11:17.175Z,36.32
2022-09-03T07:12:20.280Z,36.24
2022-09-03T07:13:25.224Z,36.13
2022-09-03T07:14:28.330Z,36.08
2022-09-03T07:15:31.427Z,35.95
2022-09-03T07:16:36.764Z,35.77
2022-09-03T07:17:40.294Z,35.59
2022-09-03T07:18:43.936Z,35.48
2022-09-03T07:19:47.044Z,35.36
2022-09-03T07:20:50.235Z,35.29
2022-09-03T07:21:53.226Z,35.29
2022-09-03T07:22:56.808Z,35.19
2022-09-03T07:23:59.996Z,35.23
2022-09-03T07:25:03.268Z,35.08
2022-09-03T07:26:10.142Z,35.02
2022-09-03T07:27:15.189Z,34.98
2022-09-03T07:28:18.279Z,34.83
2022-09-03T07:29:21.766Z,34.70
2022-09-03T07:30:26.110Z,34.55
2022-09-03T07:31:32.976Z,34.56
2022-09-03T07:32:38.006Z,34.48
2022-09-03T07:33:41.755Z,34.47
2022-09-03T07:34:44.925Z,34.43
2022-09-03T07:35:48.630Z,34.36
2022-09-03T07:36:52.072Z,34.33
2022-09-03T07:37:55.247Z,34.17
2022-09-03T07:38:59.281Z,34.14
2022-09-03T07:40:02.973Z,34.11
2022-09-03T07:41:08.665Z,34.08
2022-09-03T07:42:11.795Z,34.03
2022-09-03T07:43:14.901Z,34.03
2022-09-03T07:44:19.021Z,33.99
2022-09-03T07:45:23.536Z,33.88
2022-09-03T07:46:27.533Z,33.87
2022-09-03T07:47:31.656Z,33.76
2022-09-03T07:48:37.446Z,33.63
2022-09-03T07:49:39.692Z,33.63
2022-09-03T07:50:43.439Z,33.62
2022-09-03T07:51:48.462Z,33.64
2022-09-03T07:52:58.467Z,33.56
2022-09-03T07:54:04.409Z,33.58
2022-09-03T07:55:09.115Z,33.52
2022-09-03T07:56:15.205Z,33.46
2022-09-03T07:57:18.318Z,33.42
2022-09-03T07:58:23.396Z,33.44
2022-09-03T07:59:26.502Z,33.40
2022-09-03T08:00:31.872Z,33.34
2022-09-03T08:01:36.593Z,33.22
2022-09-03T08:02:45.949Z,33.01
2022-09-03T08:03:49.471Z,32.95
2022-09-03T08:04:52.726Z,32.95
2022-09-03T08:05:59.526Z,32.91
2022-09-03T08:07:03.496Z,32.95
2022-09-03T08:08:07.835Z,32.89
2022-09-03T08:09:13.043Z,32.85
2022-09-03T08:10:17.193Z,32.88
2022-09-03T08:11:21.518Z,32.90
2022-09-03T08:12:24.684Z,32.98
2022-09-03T08:13:28.143Z,33.01
2022-09-03T08:14:31.179Z,32.95
2022-09-03T08:15:34.328Z,32.88
2022-09-03T08:16:41.716Z,32.89
2022-09-03T08:17:45.277Z,32.97
2022-09-03T08:18:50.183Z,32.85
2022-09-03T08:19:53.428Z,32.62
2022-09-03T08:20:59.737Z,32.50
2022-09-03T08:22:03.052Z,32.41
2022-09-03T08:23:06.333Z,32.41
2022-09-03T08:24:11.671Z,32.31
2022-09-03T08:25:14.769Z,32.28
2022-09-03T08:26:19.781Z,32.37
2022-09-03T08:27:24.709Z,32.32
2022-09-03T08:28:28.407Z,32.31
2022-09-03T08:29:31.624Z,32.25
2022-09-03T08:30:36.023Z,32.19
2022-09-03T08:31:39.321Z,32.21
2022-09-03T08:32:42.558Z,32.22
2022-09-03T08:33:48.168Z,32.24
2022-09-03T08:34:51.771Z,32.18
2022-09-03T08:35:54.853Z,32.16
2022-09-03T08:37:00.063Z,32.19
2022-09-03T08:38:04.952Z,32.15
2022-09-03T08:39:10.710Z,32.16
2022-09-03T08:40:14.921Z,32.12
2022-09-03T08:41:21.020Z,32.08
2022-09-03T08:42:45.848Z,32.11
2022-09-03T08:44:03.111Z,32.06
2022-09-03T08:45:07.929Z,32.00
2022-09-03T08:46:13.238Z,31.99
2022-09-03T08:47:35.042Z,32.01
2022-09-03T08:48:38.370Z,31.99
2022-09-03T08:51:10.865Z,32.08
2022-09-03T08:52:23.209Z,32.11
2022-09-03T08:53:51.285Z,32.11
2022-09-03T08:54:57.946Z,32.10
2022-09-03T08:56:13.474Z,32.14
2022-09-03T08:57:20.133Z,32.09
2022-09-03T08:58:29.217Z,32.29
2022-09-03T08:59:33.104Z,32.24
2022-09-03T09:01:01.706Z,32.23
2022-09-03T09:02:08.592Z,32.23
2022-09-03T09:03:15.469Z,32.15
2022-09-03T09:04:37.317Z,32.13
2022-09-03T09:06:00.646Z,32.09
2022-09-03T09:07:07.357Z,32.02
2022-09-03T09:08:20.158Z,31.99
2022-09-03T09:09:52.455Z,32.00
2022-09-03T09:11:17.169Z,32.05
2022-09-03T09:12:34.092Z,31.98
2022-09-03T09:13:44.596Z,31.88
2022-09-03T09:15:18.603Z,31.82
2022-09-03T09:16:28.682Z,31.76
2022-09-03T09:17:56.277Z,31.74
2022-09-03T09:19:06.673Z,31.75
2022-09-03T09:20:29.879Z,31.84
2022-09-03T09:21:56.016Z,31.80
2022-09-03T09:23:07.656Z,31.82
2022-09-03T09:24:25.830Z,31.79
2022-09-03T09:25:31.272Z,31.82
2022-09-03T09:26:34.622Z,31.87
2022-09-03T09:27:37.856Z,31.80
2022-09-03T09:28:43.173Z,31.79
2022-09-03T09:29:51.819Z,31.76
2022-09-03T09:30:56.966Z,31.68
2022-09-03T09:32:00.153Z,31.48
2022-09-03T09:33:03.325Z,31.40
2022-09-03T09:34:07.941Z,31.28
2022-09-03T09:35:11.711Z,31.26
2022-09-03T09:36:18.896Z,31.31
2022-09-03T09:37:22.061Z,31.29
2022-09-03T09:38:33.577Z,31.30
2022-09-03T09:39:37.284Z,31.24
2022-09-03T09:40:44.744Z,31.22
2022-09-03T09:42:01.715Z,31.20
2022-09-03T09:43:11.337Z,31.20
2022-09-03T09:44:20.465Z,31.23
2022-09-03T09:45:23.968Z,31.23
2022-09-03T09:46:31.497Z,31.31
2022-09-03T09:47:38.328Z,31.26
2022-09-03T09:48:51.165Z,31.20
2022-09-03T09:51:07.792Z,31.00
2022-09-03T09:52:15.146Z,31.02
2022-09-03T09:53:20.932Z,30.89
2022-09-03T09:54:27.564Z,30.83
2022-09-03T09:55:31.850Z,30.79
2022-09-03T09:56:36.057Z,30.81
2022-09-03T09:57:40.009Z,30.85
2022-09-03T09:58:43.223Z,30.87
2022-09-03T09:59:48.312Z,30.82
2022-09-03T10:00:56.475Z,30.75
2022-09-03T10:02:10.332Z,30.75
2022-09-03T10:03:17.204Z,30.74
2022-09-03T10:04:32.381Z,30.72
2022-09-03T10:05:33.252Z,30.80
2022-09-03T10:06:54.900Z,30.79
2022-09-03T10:08:04.287Z,30.70
2022-09-03T10:09:10.328Z,30.51
2022-09-03T10:10:20.978Z,30.39
2022-09-03T10:11:26.278Z,30.30
2022-09-03T10:12:39.955Z,30.11
2022-09-03T10:13:47.995Z,29.98
2022-09-03T10:15:00.805Z,29.90
2022-09-03T10:16:10.793Z,29.68
2022-09-03T10:17:37.196Z,29.59
2022-09-03T10:18:45.703Z,29.53
2022-09-03T10:20:25.935Z,29.53
2022-09-03T10:21:41.637Z,29.51
2022-09-03T10:22:56.944Z,29.49
2022-09-03T10:24:16.812Z,29.51
2022-09-03T10:25:21.336Z,29.49
2022-09-03T10:26:32.621Z,29.52
2022-09-03T10:27:36.822Z,29.48
2022-09-03T10:28:42.995Z,29.52
2022-09-03T10:29:46.110Z,29.62
2022-09-03T10:31:02.141Z,29.62
2022-09-03T10:32:09.894Z,29.53
2022-09-03T10:35:04.920Z,29.18
2022-09-03T10:36:14.717Z,29.02
2022-09-03T10:37:49.836Z,28.97
2022-09-03T10:38:58.419Z,28.85
2022-09-03T10:40:20.479Z,28.87
2022-09-03T10:41:33.253Z,28.88
2022-09-03T10:42:53.100Z,28.90
2022-09-03T10:44:19.232Z,28.91
2022-09-03T10:45:45.076Z,28.79
2022-09-03T10:47:00.949Z,28.82
2022-09-03T10:48:28.681Z,28.90
2022-09-03T10:49:39.480Z,28.99
2022-09-03T10:50:55.148Z,28.92
2022-09-03T10:52:04.700Z,28.87
2022-09-03T10:53:40.106Z,28.78
2022-09-03T10:54:55.767Z,28.60
2022-09-03T10:56:14.091Z,28.50
2022-09-03T10:57:26.539Z,28.54
2022-09-03T10:58:42.405Z,28.54
2022-09-03T11:00:10.244Z,28.54
2022-09-03T11:01:32.194Z,28.56
2022-09-03T11:02:50.846Z,28.62
2022-09-03T11:04:09.655Z,28.64
2022-09-03T11:05:19.401Z,28.66
2022-09-03T11:06:29.156Z,28.71
2022-09-03T11:07:38.788Z,28.71
2022-09-03T11:08:45.703Z,28.67
2022-09-03T11:09:52.970Z,28.61
2022-09-03T11:10:59.643Z,28.50
2022-09-03T11:12:16.939Z,28.51
2022-09-03T11:13:47.948Z,28.48
2022-09-03T11:14:53.315Z,28.59
2022-09-03T11:16:00.580Z,28.57
2022-09-03T11:17:14.200Z,28.60
2022-09-03T11:18:29.849Z,28.51
2022-09-03T11:19:54.510Z,28.47
2022-09-03T11:21:02.443Z,28.45
2022-09-03T11:22:08.175Z,28.47
2022-09-03T11:23:14.476Z,28.40
2022-09-03T11:24:23.150Z,28.40
2022-09-03T11:25:36.198Z,28.39
2022-09-03T11:26:44.515Z,28.44
2022-09-03T11:28:03.094Z,28.46
2022-09-03T11:29:17.057Z,28.43
2022-09-03T11:31:01.098Z,28.46
2022-09-03T11:32:11.310Z,28.47
2022-09-03T11:33:14.709Z,28.48
2022-09-03T11:34:32.123Z,28.51
2022-09-03T11:35:38.830Z,28.42
2022-09-03T11:36:47.808Z,28.38
2022-09-03T11:37:59.958Z,28.36
2022-09-03T11:39:21.333Z,28.34
2022-09-03T11:40:39.565Z,28.21
2022-09-03T11:41:42.923Z,28.19
2022-09-03T11:42:46.830Z,28.11
2022-09-03T11:43:49.961Z,28.06
2022-09-03T11:44:53.054Z,27.95
2022-09-03T11:46:09.148Z,27.95
2022-09-03T11:47:21.183Z,27.91
2022-09-03T11:48:45.195Z,27.85
2022-09-03T11:49:51.253Z,27.76
2022-09-03T11:50:55.203Z,27.70
2022-09-03T11:52:05.281Z,27.61
2022-09-03T11:53:18.313Z,27.54
2022-09-03T11:54:25.397Z,27.51
2022-09-03T11:55:37.522Z,27.48
2022-09-03T11:56:36.861Z,27.49
2022-09-03T11:57:45.003Z,27.43
2022-09-03T11:59:08.262Z,27.38
2022-09-03T12:00:17.567Z,27.40
2022-09-03T12:01:22.752Z,27.33
2022-09-03T12:02:34.274Z,27.41
2022-09-03T12:03:45.943Z,27.46
2022-09-03T12:05:05.386Z,27.50
2022-09-03T12:06:21.751Z,27.45
2022-09-03T12:08:05.427Z,27.44
2022-09-03T12:09:19.192Z,27.40
2022-09-03T12:10:33.910Z,27.27
2022-09-03T12:11:55.818Z,27.17
2022-09-03T12:13:20.760Z,27.06
2022-09-03T12:14:47.370Z,27.02
2022-09-03T12:16:19.573Z,27.04
2022-09-03T12:17:42.971Z,27.08
2022-09-03T12:18:48.791Z,27.09
2022-09-03T12:19:54.511Z,26.99
2022-09-03T12:21:01.087Z,26.97
2022-09-03T12:22:04.808Z,26.94
2022-09-03T12:23:14.669Z,26.97
2022-09-03T12:24:19.616Z,26.98
2022-09-03T12:25:22.753Z,26.91
2022-09-03T12:26:27.146Z,26.83
2022-09-03T12:27:32.833Z,26.90
2022-09-03T12:28:38.244Z,26.82
2022-09-03T12:29:59.538Z,26.86
2022-09-03T12:31:10.576Z,26.83
2022-09-03T12:32:15.538Z,26.84
2022-09-03T12:33:20.354Z,26.90
2022-09-03T12:34:25.267Z,26.93
2022-09-03T12:36:41.222Z,26.91
2022-09-03T12:39:10.930Z,26.93
2022-09-03T12:40:05.673Z,26.92
2022-09-03T12:42:09.695Z,27.01
2022-09-03T12:48:17.530Z,26.75
2022-09-03T12:49:36.726Z,26.69
2022-09-03T12:50:27.154Z,26.69
2022-09-03T12:51:58.170Z,26.71
2022-09-03T12:52:54.026Z,26.72
2022-09-03T12:53:57.561Z,26.73
2022-09-03T12:55:07.281Z,26.66
2022-09-03T12:56:11.102Z,26.64
2022-09-03T12:57:17.811Z,26.67
2022-09-03T12:58:27.866Z,26.65
2022-09-03T12:59:34.574Z,26.70
2022-09-03T13:00:42.064Z,26.72
2022-09-03T13:01:48.940Z,26.58
2022-09-03T13:03:16.998Z,26.50
2022-09-03T13:04:24.227Z,26.50
2022-09-03T13:05:38.617Z,26.43
2022-09-03T13:06:57.136Z,26.52
2022-09-03T13:08:04.667Z,26.43
2022-09-03T13:09:09.536Z,26.44
2022-09-03T13:10:20.070Z,26.49
2022-09-03T13:11:25.171Z,26.47
2022-09-03T13:12:34.906Z,26.49
2022-09-03T13:13:38.859Z,26.50
2022-09-03T13:14:48.139Z,26.53
2022-09-03T13:16:28.391Z,26.57
2022-09-03T13:17:50.155Z,26.59
2022-09-03T13:19:31.484Z,26.69
2022-09-03T13:20:41.581Z,26.86
2022-09-03T13:22:08.075Z,26.86
2022-09-03T13:23:23.404Z,26.91
2022-09-03T13:24:42.309Z,26.97
2022-09-03T13:26:05.300Z,27.01
2022-09-03T13:27:09.808Z,27.06
2022-09-03T13:28:38.103Z,27.15
2022-09-03T13:30:02.324Z,27.15
2022-09-03T13:31:28.622Z,27.12
2022-09-03T13:32:57.746Z,27.12
2022-09-03T13:34:09.003Z,27.04
2022-09-03T13:35:32.306Z,26.98
2022-09-03T13:38:24.289Z,26.92
2022-09-03T13:39:37.257Z,26.88
2022-09-03T13:41:04.307Z,26.96
2022-09-03T13:42:21.606Z,26.94
2022-09-03T13:43:34.468Z,27.00
2022-09-03T13:44:47.808Z,27.01
2022-09-03T13:45:57.314Z,26.95
2022-09-03T13:47:05.949Z,26.87
2022-09-03T13:48:29.285Z,26.80
2022-09-03T13:50:06.451Z,26.73
2022-09-03T13:51:29.255Z,26.71
2022-09-03T13:52:42.452Z,26.78
2022-09-03T13:53:49.925Z,26.71
2022-09-03T13:54:56.579Z,26.69
2022-09-03T13:56:09.491Z,26.64
2022-09-03T13:57:34.292Z,26.47
2022-09-03T13:58:47.663Z,26.38
2022-09-03T14:00:09.950Z,26.24
2022-09-03T14:01:28.112Z,26.18
2022-09-03T14:03:00.399Z,26.07
2022-09-03T14:04:03.830Z,26.01
2022-09-03T14:05:19.555Z,25.90
2022-09-03T14:06:45.837Z,25.89
2022-09-03T14:07:58.436Z,25.81
2022-09-03T14:09:22.129Z,25.66
2022-09-03T14:10:45.359Z,25.48
2022-09-03T14:12:06.993Z,25.36
2022-09-03T14:13:41.350Z,25.34
2022-09-03T14:14:56.848Z,25.43
2022-09-03T14:16:12.741Z,25.43
2022-09-03T14:17:46.715Z,25.45
2022-09-03T14:19:17.276Z,25.41
2022-09-03T14:20:30.059Z,25.40
2022-09-03T14:21:45.868Z,25.43
2022-09-03T14:22:52.542Z,25.41
2022-09-03T14:24:05.183Z,25.49
2022-09-03T14:25:17.865Z,25.47
2022-09-03T14:26:39.639Z,25.48
2022-09-03T14:27:41.190Z,25.47
2022-09-03T14:28:50.733Z,25.47
2022-09-03T14:30:03.080Z,25.45
2022-09-03T14:31:30.352Z,25.46
2022-09-03T14:32:41.458Z,25.41
2022-09-03T14:33:57.518Z,25.38
2022-09-03T14:35:07.221Z,25.34
2022-09-03T14:36:17.164Z,25.42
2022-09-03T14:37:57.294Z,25.38
2022-09-03T14:39:13.137Z,25.37
2022-09-03T14:40:23.485Z,25.33
2022-09-03T14:41:45.258Z,25.35
2022-09-03T14:43:08.699Z,25.39
2022-09-03T14:44:24.778Z,25.40
2022-09-03T14:45:48.657Z,25.42
2022-09-03T14:47:07.623Z,25.40
2022-09-03T14:48:46.233Z,25.44
2022-09-03T14:49:55.593Z,25.44
2022-09-03T14:51:23.652Z,25.40
2022-09-03T14:53:02.341Z,25.42
2022-09-03T14:54:14.711Z,25.52
2022-09-03T14:55:22.769Z,25.60
2022-09-03T14:56:38.317Z,25.64
2022-09-03T14:57:50.557Z,25.74
2022-09-03T14:59:00.101Z,25.82
2022-09-03T15:00:18.427Z,25.92
2022-09-03T15:01:24.514Z,26.00
2022-09-03T15:02:37.659Z,26.00
2022-09-03T15:03:54.483Z,26.02
2022-09-03T15:05:20.915Z,26.15
2022-09-03T15:06:42.519Z,26.19
2022-09-03T15:08:22.922Z,26.25
2022-09-03T15:09:29.583Z,26.27
2022-09-03T15:11:00.537Z,26.35
2022-09-03T15:12:07.164Z,26.38
2022-09-03T15:13:29.013Z,26.45
2022-09-03T15:14:53.697Z,26.50